Etusivu
METAR-TAF:

METAR-TAF

Lentoasemat :

Fremont Municipal Airport

Fremont, Nebraska, Yhdysvallat

Leveyspiiri: 41-27N, Pituuspiiri: 096-31W, korkeus merenpinnasta: 379 m

Tämänhetkinen sää

Tämä raportti tehtiin 29 minuuttia sitten, kello 21.15 UTC
Tuuli 13 kn etelästä/kaakosta puuskistuen 18 kn:hen
Lämpötila 31°C
Kosteus 55%
Ilmanpaine 1014 hPa
Näkyvyys: 16.1 km
selkeää

METAR: KFET 132115Z AUTO 15013G18KT 10SM CLR 31/21 A2993 RMK AO2 T03070214

Aika: 16:44 (21:44 UTC)


TAF: puuttuu

Säähavainnot ja -ennusteet yli 4000 lentoasemalta (METAR- ja TAF-raportit).

Käytössä olevat sääasemat on merkitty karttaan keltaisilla ja punaisilla pisteillä.

Aseta hiiri pisteen päälle nähdäksesi sääaseman nimen.

Klikkaa sitten nähdäksesi säähavainnot ja -ennusteet.

Kartan vaihtaminen: klikkaa mustalla rastilla varustettuja vihreitä pisteitä, niin voit zoomata sisään; viivalla varustettua vihreää pistettä, niin voit zoomata ulos tai vihreitä nuolia, niin pääset viereisille kartoille.


METAR-TAF: